createdAt,value
2019-03-13T00:01:28.824Z,99.90
2019-03-13T00:03:59.381Z,99.90
2019-03-13T00:06:29.943Z,99.90
2019-03-13T00:09:00.451Z,99.90
2019-03-13T00:11:34.321Z,99.90
2019-03-13T00:14:04.830Z,99.90
2019-03-13T00:16:35.400Z,99.90
2019-03-13T00:19:05.959Z,99.90
2019-03-13T00:21:36.512Z,99.90
2019-03-13T00:24:07.264Z,99.90
2019-03-13T00:26:38.113Z,99.90
2019-03-13T00:29:08.530Z,99.90
2019-03-13T00:31:39.145Z,99.90
2019-03-13T00:34:09.686Z,99.90
2019-03-13T00:36:40.295Z,99.90
2019-03-13T00:39:10.720Z,99.90
2019-03-13T00:41:41.295Z,99.90
2019-03-13T00:44:12.687Z,99.90
2019-03-13T00:46:43.169Z,99.90
2019-03-13T00:49:13.794Z,99.90
2019-03-13T00:51:44.161Z,99.90
2019-03-13T00:54:14.709Z,99.90
2019-03-13T00:56:45.175Z,99.90
2019-03-13T00:59:16.574Z,99.90
2019-03-13T01:02:00.345Z,99.90
2019-03-13T01:04:34.641Z,99.90
2019-03-13T01:07:07.709Z,99.90
2019-03-13T01:09:38.469Z,99.90
2019-03-13T01:12:09.137Z,99.90
2019-03-13T01:14:42.328Z,99.90
2019-03-13T01:17:12.970Z,99.90
2019-03-13T01:19:43.613Z,99.90
2019-03-13T01:22:14.005Z,99.90
2019-03-13T01:24:45.488Z,99.90
2019-03-13T01:27:16.012Z,99.90
2019-03-13T01:29:46.433Z,99.90
2019-03-13T01:32:36.026Z,99.90
2019-03-13T01:35:11.971Z,99.90
2019-03-13T01:37:42.395Z,99.90
2019-03-13T01:40:14.129Z,99.90
2019-03-13T01:42:47.168Z,99.90
2019-03-13T01:45:17.748Z,99.90
2019-03-13T01:47:48.273Z,99.90
2019-03-13T01:50:18.777Z,99.90
2019-03-13T01:52:49.383Z,99.90
2019-03-13T01:55:19.908Z,99.90
2019-03-13T01:57:50.346Z,99.90
2019-03-13T02:00:20.908Z,99.90
2019-03-13T02:02:51.328Z,99.90
2019-03-13T02:05:21.838Z,99.90
2019-03-13T02:07:52.290Z,99.90
2019-03-13T02:10:22.915Z,99.90
2019-03-13T02:12:53.531Z,99.90
2019-03-13T02:15:25.355Z,99.90
2019-03-13T02:17:55.935Z,99.90
2019-03-13T02:20:26.718Z,99.90
2019-03-13T02:22:57.265Z,99.90
2019-03-13T02:25:28.152Z,99.90
2019-03-13T02:27:58.993Z,99.90
2019-03-13T02:30:31.998Z,99.90
2019-03-13T02:33:02.642Z,99.90
2019-03-13T02:35:33.083Z,99.90
2019-03-13T02:38:03.679Z,99.90
2019-03-13T02:40:34.166Z,99.90
2019-03-13T02:43:04.907Z,99.90
2019-03-13T02:45:35.469Z,99.90
2019-03-13T02:48:06.160Z,99.90
2019-03-13T02:50:36.587Z,99.90
2019-03-13T02:53:07.395Z,99.90
2019-03-13T02:55:37.998Z,99.90
2019-03-13T02:58:08.528Z,99.90
2019-03-13T03:00:50.658Z,99.90
2019-03-13T03:03:32.766Z,99.90
2019-03-13T03:06:03.317Z,99.90
2019-03-13T03:08:34.842Z,99.90
2019-03-13T03:11:05.357Z,99.90
2019-03-13T03:13:35.829Z,99.90
2019-03-13T03:16:06.601Z,99.90
2019-03-13T03:18:37.109Z,99.90
2019-03-13T03:21:07.760Z,99.90
2019-03-13T03:23:38.296Z,99.90
2019-03-13T03:26:09.034Z,99.90
2019-03-13T03:28:40.838Z,99.90
2019-03-13T03:31:11.519Z,99.90
2019-03-13T03:33:41.990Z,99.90
2019-03-13T03:36:12.637Z,99.90
2019-03-13T03:38:44.142Z,99.90
2019-03-13T03:41:14.591Z,99.90
2019-03-13T03:43:45.180Z,99.90
2019-03-13T03:46:15.697Z,99.90
2019-03-13T03:48:46.608Z,99.90
2019-03-13T03:51:18.171Z,99.90
2019-03-13T03:53:48.778Z,99.90
2019-03-13T03:56:19.465Z,99.90
2019-03-13T03:58:50.029Z,99.90
2019-03-13T04:01:20.726Z,99.90
2019-03-13T04:03:51.255Z,99.90
2019-03-13T04:06:21.885Z,99.90
2019-03-13T04:08:53.887Z,99.90
2019-03-13T04:11:24.392Z,99.90
2019-03-13T04:13:54.977Z,99.90
2019-03-13T04:16:25.571Z,99.90
2019-03-13T04:18:57.177Z,99.90
2019-03-13T04:21:30.000Z,99.90
2019-03-13T04:24:00.572Z,99.90
2019-03-13T04:26:31.096Z,99.90
2019-03-13T04:29:01.638Z,99.90
2019-03-13T04:31:32.182Z,99.90
2019-03-13T04:34:02.732Z,99.90
2019-03-13T04:36:33.221Z,99.90
2019-03-13T04:39:04.999Z,99.90
2019-03-13T04:41:36.188Z,99.90
2019-03-13T04:44:06.881Z,99.90
2019-03-13T04:46:37.408Z,99.90
2019-03-13T04:49:07.822Z,99.90
2019-03-13T04:51:41.530Z,99.90
2019-03-13T04:54:12.281Z,99.90
2019-03-13T04:56:42.851Z,99.90
2019-03-13T04:59:13.315Z,99.90
2019-03-13T05:01:44.003Z,99.80
2019-03-13T05:04:14.386Z,99.60
2019-03-13T05:06:45.181Z,99.60
2019-03-13T05:09:18.509Z,99.80
2019-03-13T05:11:49.556Z,99.40
2019-03-13T05:14:20.163Z,99.20
2019-03-13T05:16:51.864Z,99.20
2019-03-13T05:19:22.528Z,98.90
2019-03-13T05:21:53.317Z,98.60
2019-03-13T05:24:23.758Z,98.50
2019-03-13T05:26:54.343Z,98.30
2019-03-13T05:29:25.182Z,98.10
2019-03-13T05:31:55.840Z,97.70
2019-03-13T05:34:29.166Z,96.80
2019-03-13T05:36:59.809Z,96.70
2019-03-13T05:39:30.446Z,96.50
2019-03-13T05:42:01.027Z,95.80
2019-03-13T05:44:31.497Z,95.60
2019-03-13T05:47:02.058Z,95.30
2019-03-13T05:49:32.511Z,95.00
2019-03-13T05:52:03.112Z,94.90
2019-03-13T05:54:33.737Z,94.60
2019-03-13T05:57:04.405Z,94.80
2019-03-13T05:59:35.028Z,94.00
2019-03-13T06:02:05.642Z,94.10
2019-03-13T06:04:36.370Z,94.00
2019-03-13T06:07:08.050Z,93.30
2019-03-13T06:09:38.682Z,93.30
2019-03-13T06:12:12.907Z,93.10
2019-03-13T06:14:43.476Z,93.00
2019-03-13T06:17:13.893Z,92.90
2019-03-13T06:19:44.419Z,92.90
2019-03-13T06:22:14.878Z,93.00
2019-03-13T06:24:45.578Z,92.60
2019-03-13T06:27:16.043Z,92.00
2019-03-13T06:29:46.608Z,91.90
2019-03-13T06:32:17.040Z,92.00
2019-03-13T06:34:47.884Z,92.00
2019-03-13T06:37:18.423Z,91.90
2019-03-13T06:39:49.044Z,91.70
2019-03-13T06:42:19.776Z,91.80
2019-03-13T06:44:50.670Z,91.40
2019-03-13T06:47:21.348Z,91.40
2019-03-13T06:49:52.988Z,91.50
2019-03-13T06:52:23.542Z,91.10
2019-03-13T06:54:54.199Z,91.10
2019-03-13T06:57:27.113Z,91.40
2019-03-13T07:00:16.732Z,91.40
2019-03-13T07:02:52.874Z,90.80
2019-03-13T07:05:29.549Z,90.30
2019-03-13T07:08:19.012Z,88.40
2019-03-13T07:11:09.196Z,87.10
2019-03-13T07:13:56.219Z,86.60
2019-03-13T07:16:45.758Z,84.10
2019-03-13T07:19:35.351Z,82.70
2019-03-13T07:22:15.755Z,83.60
2019-03-13T07:24:59.042Z,84.10
2019-03-13T07:27:45.548Z,84.50
2019-03-13T07:30:35.281Z,83.40
2019-03-13T07:33:24.987Z,81.70
2019-03-13T07:36:14.663Z,83.20
2019-03-13T07:39:03.634Z,81.20
2019-03-13T07:41:49.490Z,80.70
2019-03-13T07:44:39.088Z,79.10
2019-03-13T07:47:22.346Z,79.60
2019-03-13T07:50:11.999Z,80.20
2019-03-13T07:53:01.748Z,79.80
2019-03-13T07:55:49.903Z,79.20
2019-03-13T07:58:29.427Z,79.20
2019-03-13T08:01:19.117Z,78.30
2019-03-13T08:04:08.766Z,78.20
2019-03-13T08:06:54.380Z,76.00
2019-03-13T08:09:35.192Z,74.70
2019-03-13T08:12:19.414Z,75.70
2019-03-13T08:15:09.111Z,75.10
2019-03-13T08:17:58.700Z,72.70
2019-03-13T08:20:48.362Z,70.70
2019-03-13T08:23:38.031Z,71.10
2019-03-13T08:29:21.201Z,70.80
2019-03-13T08:32:10.782Z,70.20
2019-03-13T08:34:49.715Z,71.00
2019-03-13T08:37:33.331Z,70.70
2019-03-13T08:40:23.259Z,69.80
2019-03-13T08:43:01.061Z,69.10
2019-03-13T08:45:50.760Z,69.90
2019-03-13T08:48:40.485Z,68.40
2019-03-13T08:51:30.103Z,66.10
2019-03-13T08:54:19.835Z,66.80
2019-03-13T08:56:57.475Z,68.20
2019-03-13T08:59:41.026Z,67.20
2019-03-13T09:02:19.593Z,68.80
2019-03-13T09:05:09.259Z,67.70
2019-03-13T09:07:59.257Z,68.70
2019-03-13T09:10:49.239Z,68.50
2019-03-13T09:13:35.100Z,70.10
2019-03-13T09:16:19.823Z,70.60
2019-03-13T09:18:59.391Z,73.40
2019-03-13T09:21:48.859Z,75.00
2019-03-13T09:24:38.208Z,75.00
2019-03-13T09:27:27.664Z,76.50
2019-03-13T09:30:17.166Z,78.40
2019-03-13T09:32:57.838Z,79.80
2019-03-13T09:35:42.240Z,85.30
2019-03-13T09:38:29.331Z,85.10
2019-03-13T09:41:19.130Z,87.40
2019-03-13T09:44:08.141Z,86.30
2019-03-13T09:46:57.822Z,86.70
2019-03-13T09:49:47.556Z,86.20
2019-03-13T09:52:31.940Z,87.20
2019-03-13T09:55:21.710Z,87.40
2019-03-13T09:58:11.394Z,88.20
2019-03-13T10:01:00.966Z,88.50
2019-03-13T10:03:38.201Z,89.90
2019-03-13T10:06:27.745Z,91.10
2019-03-13T10:09:11.238Z,91.20
2019-03-13T10:11:47.497Z,91.20
2019-03-13T10:14:30.007Z,92.60
2019-03-13T10:17:11.059Z,92.10
2019-03-13T10:19:48.907Z,92.40
2019-03-13T10:22:39.617Z,93.00
2019-03-13T10:25:29.391Z,94.80
2019-03-13T10:28:12.645Z,95.10
2019-03-13T10:31:02.301Z,96.90
2019-03-13T10:33:37.776Z,97.90
2019-03-13T10:36:27.482Z,98.60
2019-03-13T10:39:09.589Z,99.40
2019-03-13T10:41:58.760Z,99.90
2019-03-13T10:44:48.692Z,99.90
2019-03-13T10:47:38.314Z,99.90
2019-03-13T10:50:17.071Z,99.90
2019-03-13T10:53:01.183Z,99.90
2019-03-13T10:55:47.210Z,99.90
2019-03-13T10:58:37.784Z,99.90
2019-03-13T11:01:20.917Z,99.90
2019-03-13T11:04:10.594Z,99.90
2019-03-13T11:07:00.305Z,99.90
2019-03-13T11:09:50.007Z,99.90
2019-03-13T11:12:35.452Z,99.90
2019-03-13T11:15:15.050Z,99.90
2019-03-13T11:18:04.723Z,99.90
2019-03-13T11:20:54.510Z,99.90
2019-03-13T11:23:34.527Z,99.90
2019-03-13T11:26:24.361Z,99.90
2019-03-13T11:29:07.777Z,99.90
2019-03-13T11:31:57.657Z,99.90
2019-03-13T11:34:47.261Z,99.90
2019-03-13T11:37:32.529Z,99.90
2019-03-13T11:40:22.175Z,99.90
2019-03-13T11:43:08.365Z,99.90
2019-03-13T11:45:52.205Z,99.90
2019-03-13T11:48:41.653Z,99.90
2019-03-13T11:51:31.447Z,99.90
2019-03-13T11:54:09.017Z,99.90
2019-03-13T11:56:56.605Z,99.90
2019-03-13T11:59:46.339Z,99.90
2019-03-13T12:02:36.100Z,99.90
2019-03-13T12:05:27.316Z,99.90
2019-03-13T12:08:11.134Z,99.90
2019-03-13T12:11:00.077Z,99.90
2019-03-13T12:13:47.813Z,99.90
2019-03-13T12:16:26.336Z,99.90
2019-03-13T12:19:11.547Z,99.90
2019-03-13T12:21:56.637Z,99.90
2019-03-13T12:24:46.412Z,99.90
2019-03-13T12:27:36.138Z,99.90
2019-03-13T12:30:21.943Z,99.90
2019-03-13T12:33:11.759Z,99.90
2019-03-13T12:35:53.908Z,99.90
2019-03-13T12:38:43.527Z,99.90
2019-03-13T12:41:33.220Z,99.90
2019-03-13T12:44:11.972Z,99.90
2019-03-13T12:46:54.234Z,99.90
2019-03-13T12:49:37.406Z,99.90
2019-03-13T12:52:17.433Z,99.90
2019-03-13T12:55:07.095Z,99.90
2019-03-13T12:57:52.886Z,99.90
2019-03-13T13:00:43.429Z,99.90
2019-03-13T13:03:22.121Z,99.90
2019-03-13T13:06:11.847Z,99.90
2019-03-13T13:09:01.539Z,99.90
2019-03-13T13:11:53.835Z,99.90
2019-03-13T13:14:39.626Z,99.90
2019-03-13T13:17:29.233Z,99.90
2019-03-13T13:20:00.472Z,99.90
2019-03-13T13:22:31.007Z,99.90
2019-03-13T13:25:01.503Z,99.90
2019-03-13T13:27:35.586Z,99.10
2019-03-13T13:30:07.326Z,99.20
2019-03-13T13:32:37.997Z,97.10
2019-03-13T13:35:09.577Z,97.40
2019-03-13T13:37:40.291Z,96.90
2019-03-13T13:40:10.954Z,96.20
2019-03-13T13:42:41.581Z,96.10
2019-03-13T13:45:40.028Z,96.30
2019-03-13T13:48:11.021Z,94.70
2019-03-13T13:50:41.610Z,95.40
2019-03-13T13:53:12.133Z,94.90
2019-03-13T13:55:42.702Z,93.80
2019-03-13T13:58:13.248Z,93.20
2019-03-13T14:00:43.875Z,93.90
2019-03-13T14:03:14.587Z,94.40
2019-03-13T14:05:45.239Z,95.00
2019-03-13T14:08:15.822Z,94.40
2019-03-13T14:10:46.401Z,94.50
2019-03-13T14:13:17.871Z,93.40
2019-03-13T14:15:48.390Z,93.30
2019-03-13T14:18:19.104Z,92.70
2019-03-13T14:20:49.728Z,92.60
2019-03-13T14:23:20.211Z,91.90
2019-03-13T14:25:50.669Z,94.00
2019-03-13T14:28:21.201Z,93.40
2019-03-13T14:30:53.238Z,93.20
2019-03-13T14:33:23.730Z,93.70
2019-03-13T14:35:54.456Z,92.80
2019-03-13T14:38:24.871Z,92.50
2019-03-13T14:40:55.531Z,92.10
2019-03-13T14:43:26.079Z,91.00
2019-03-13T14:45:56.648Z,91.80
2019-03-13T14:48:27.937Z,92.50
2019-03-13T14:50:58.438Z,92.60
2019-03-13T14:53:28.998Z,92.70
2019-03-13T14:55:59.388Z,92.70
2019-03-13T14:58:30.018Z,91.10
2019-03-13T15:01:00.719Z,89.50
2019-03-13T15:03:32.717Z,88.90
2019-03-13T15:06:03.362Z,87.80
2019-03-13T15:08:35.107Z,86.80
2019-03-13T15:11:24.787Z,85.40
2019-03-13T15:13:55.437Z,84.70
2019-03-13T15:16:26.154Z,84.70
2019-03-13T15:18:56.895Z,84.30
2019-03-13T15:21:27.564Z,85.30
2019-03-13T15:23:59.333Z,86.50
2019-03-13T15:26:29.874Z,88.20
2019-03-13T15:29:00.955Z,88.50
2019-03-13T15:31:31.622Z,88.50
2019-03-13T15:34:02.271Z,89.60
2019-03-13T15:36:33.039Z,90.10
2019-03-13T15:39:04.128Z,90.00
2019-03-13T15:41:36.620Z,90.30
2019-03-13T15:44:07.416Z,89.60
2019-03-13T15:46:37.962Z,90.00
2019-03-13T15:49:08.507Z,90.10
2019-03-13T15:51:39.300Z,90.30
2019-03-13T15:54:09.766Z,90.50
2019-03-13T15:56:40.351Z,90.70
2019-03-13T15:59:10.906Z,90.60
2019-03-13T16:01:41.535Z,90.30
2019-03-13T16:04:12.208Z,90.10
2019-03-13T16:06:42.805Z,90.50
2019-03-13T16:09:13.587Z,90.30
2019-03-13T16:11:46.822Z,90.40
2019-03-13T16:14:17.536Z,90.80
2019-03-13T16:16:48.362Z,91.30
2019-03-13T16:19:19.005Z,91.70
2019-03-13T16:21:49.531Z,92.00
2019-03-13T16:24:20.129Z,92.50
2019-03-13T16:26:50.869Z,92.90
2019-03-13T16:29:21.608Z,93.70
2019-03-13T16:31:52.336Z,94.10
2019-03-13T16:34:23.216Z,94.70
2019-03-13T16:36:53.987Z,95.10
2019-03-13T16:39:24.539Z,95.80
2019-03-13T16:41:55.111Z,96.40
2019-03-13T16:44:26.704Z,96.90
2019-03-13T16:46:57.474Z,97.40
2019-03-13T16:49:28.157Z,98.00
2019-03-13T16:51:58.937Z,98.50
2019-03-13T16:54:29.566Z,98.80
2019-03-13T16:57:00.498Z,99.50
2019-03-13T16:59:31.287Z,99.40
2019-03-13T17:02:02.429Z,99.90
2019-03-13T17:04:33.221Z,99.90
2019-03-13T17:07:03.877Z,99.90
2019-03-13T17:09:34.755Z,99.90
2019-03-13T17:12:05.709Z,99.90
2019-03-13T17:14:36.710Z,99.90
2019-03-13T17:17:10.417Z,99.90
2019-03-13T17:19:41.397Z,99.90
2019-03-13T17:22:13.358Z,99.90
2019-03-13T17:24:44.105Z,99.90
2019-03-13T17:27:17.299Z,99.90
2019-03-13T17:29:47.924Z,99.90
2019-03-13T17:32:18.552Z,99.90
2019-03-13T17:34:49.394Z,99.90
2019-03-13T17:37:20.219Z,99.90
2019-03-13T17:39:51.576Z,99.90
2019-03-13T17:42:22.288Z,99.90
2019-03-13T17:44:53.048Z,99.90
2019-03-13T17:47:32.068Z,99.90
2019-03-13T17:50:02.881Z,99.90
2019-03-13T17:52:33.703Z,99.90
2019-03-13T17:55:05.085Z,99.90
2019-03-13T17:57:36.128Z,99.90
2019-03-13T18:00:09.658Z,99.90
2019-03-13T18:02:40.766Z,99.90
2019-03-13T18:05:11.769Z,99.90
2019-03-13T18:07:42.713Z,99.90
2019-03-13T18:10:15.579Z,99.90
2019-03-13T18:12:47.349Z,99.90
2019-03-13T18:15:18.088Z,99.90
2019-03-13T18:17:48.825Z,99.90
2019-03-13T18:20:19.615Z,99.90
2019-03-13T18:22:50.657Z,99.90
2019-03-13T18:25:21.666Z,99.90
2019-03-13T18:27:52.232Z,99.90
2019-03-13T18:30:23.788Z,99.90
2019-03-13T18:32:54.537Z,99.90
2019-03-13T18:35:29.307Z,99.90
2019-03-13T18:38:07.180Z,99.90
2019-03-13T18:40:43.127Z,99.90
2019-03-13T18:43:17.735Z,99.90
2019-03-13T18:45:48.566Z,99.90
2019-03-13T18:48:19.297Z,99.90
2019-03-13T18:50:50.007Z,99.90
2019-03-13T18:53:20.782Z,99.90
2019-03-13T18:55:51.650Z,99.90
2019-03-13T18:58:23.700Z,99.90
2019-03-13T19:00:58.089Z,99.90
2019-03-13T19:03:27.606Z,99.90
2019-03-13T19:06:00.087Z,99.90
2019-03-13T19:08:31.276Z,99.90
2019-03-13T19:11:02.171Z,99.90
2019-03-13T19:13:33.871Z,99.90
2019-03-13T19:16:04.618Z,99.90
2019-03-13T19:18:35.387Z,99.90
2019-03-13T19:21:06.287Z,99.90
2019-03-13T19:23:37.979Z,99.90
2019-03-13T19:26:13.510Z,99.90
2019-03-13T19:28:44.368Z,99.90
2019-03-13T19:31:15.270Z,99.90
2019-03-13T19:33:46.127Z,99.90
2019-03-13T19:36:16.875Z,99.90
2019-03-13T19:38:50.775Z,99.90
2019-03-13T19:41:21.676Z,99.90
2019-03-13T19:43:54.978Z,99.90
2019-03-13T19:46:25.792Z,99.90
2019-03-13T19:48:57.541Z,99.90
2019-03-13T19:51:29.357Z,99.90
2019-03-13T19:54:00.812Z,99.90
2019-03-13T19:56:34.934Z,99.90
2019-03-13T19:59:06.550Z,99.90
2019-03-13T20:01:37.637Z,99.90
2019-03-13T20:04:08.983Z,99.90
2019-03-13T20:06:42.346Z,99.90
2019-03-13T20:09:15.288Z,99.90
2019-03-13T20:11:45.854Z,99.90
2019-03-13T20:14:17.093Z,99.90
2019-03-13T20:16:47.894Z,99.90
2019-03-13T20:19:19.777Z,99.90
2019-03-13T20:21:50.516Z,99.90
2019-03-13T20:24:24.383Z,99.90
2019-03-13T20:26:55.339Z,99.90
2019-03-13T20:29:27.328Z,99.90
2019-03-13T20:31:58.777Z,99.90
2019-03-13T20:34:29.618Z,99.90
2019-03-13T20:37:00.396Z,99.90
2019-03-13T20:39:31.084Z,99.90
2019-03-13T20:42:01.919Z,99.90
2019-03-13T20:44:32.818Z,99.90
2019-03-13T20:47:07.888Z,99.90
2019-03-13T20:49:38.726Z,99.90
2019-03-13T20:52:13.173Z,99.90
2019-03-13T20:54:43.934Z,99.90
2019-03-13T20:57:15.687Z,99.90
2019-03-13T20:59:46.494Z,99.90
2019-03-13T21:02:17.211Z,99.90
2019-03-13T21:04:48.078Z,99.90
2019-03-13T21:07:18.647Z,99.90
2019-03-13T21:09:49.198Z,99.90
2019-03-13T21:12:22.940Z,99.90
2019-03-13T21:14:52.211Z,99.90
2019-03-13T21:17:22.946Z,99.90
2019-03-13T21:19:53.448Z,99.90
2019-03-13T21:22:24.060Z,99.90
2019-03-13T21:24:55.857Z,99.90
2019-03-13T21:27:26.420Z,99.90
2019-03-13T21:29:56.875Z,99.90
2019-03-13T21:32:27.289Z,99.90
2019-03-13T21:34:57.856Z,99.90
2019-03-13T21:37:28.412Z,99.90
2019-03-13T21:39:58.884Z,99.90
2019-03-13T21:42:29.535Z,99.90
2019-03-13T21:45:02.848Z,99.90
2019-03-13T21:47:33.531Z,99.90
2019-03-13T21:50:04.628Z,99.90
2019-03-13T21:52:35.266Z,99.90
2019-03-13T21:55:06.195Z,99.90
2019-03-13T21:57:36.807Z,99.90
2019-03-13T22:00:10.869Z,99.90
2019-03-13T22:02:42.896Z,99.90
2019-03-13T22:05:25.678Z,99.90
2019-03-13T22:07:49.015Z,99.90
2019-03-13T22:10:20.738Z,99.90
2019-03-13T22:12:51.579Z,99.90
2019-03-13T22:15:22.467Z,99.90
2019-03-13T22:17:53.009Z,99.90
2019-03-13T22:20:23.623Z,99.90
2019-03-13T22:22:54.096Z,99.90
2019-03-13T22:25:24.658Z,99.90
2019-03-13T22:27:55.088Z,99.90
2019-03-13T22:30:28.596Z,99.90
2019-03-13T22:32:58.079Z,99.90
2019-03-13T22:35:28.500Z,99.90
2019-03-13T22:37:59.055Z,99.90
2019-03-13T22:40:29.500Z,99.90
2019-03-13T22:43:00.273Z,99.90
2019-03-13T22:45:30.905Z,99.90
2019-03-13T22:48:01.375Z,99.90
2019-03-13T22:50:31.915Z,99.90
2019-03-13T22:53:02.436Z,99.90
2019-03-13T22:55:32.915Z,99.90
2019-03-13T22:58:03.376Z,99.90
2019-03-13T23:00:57.545Z,99.90
2019-03-13T23:03:30.979Z,99.90
2019-03-13T23:06:01.876Z,99.90
2019-03-13T23:08:32.254Z,99.90
2019-03-13T23:11:02.684Z,99.90
2019-03-13T23:13:33.397Z,99.90
2019-03-13T23:16:03.849Z,99.90
2019-03-13T23:18:34.521Z,99.90
2019-03-13T23:21:05.209Z,99.90
2019-03-13T23:23:35.678Z,99.90
2019-03-13T23:26:06.220Z,99.90
2019-03-13T23:28:36.934Z,99.90
2019-03-13T23:31:07.495Z,99.90
2019-03-13T23:33:37.941Z,99.90
2019-03-13T23:36:08.620Z,99.90
2019-03-13T23:38:39.141Z,99.90
2019-03-13T23:41:09.691Z,99.90
2019-03-13T23:43:40.318Z,99.90
2019-03-13T23:46:10.745Z,99.90
2019-03-13T23:48:42.255Z,99.90
2019-03-13T23:51:12.709Z,99.90
2019-03-13T23:53:43.087Z,99.90
2019-03-13T23:56:13.677Z,99.90
2019-03-13T23:58:45.816Z,99.90
